sensor_id;sensor_type;location;lat;lon;timestamp;temperature;humidity
19803;DHT22;66074;50.764;6.090;2023-04-29T00:01:29;13.00;99.80
19803;DHT22;66074;50.764;6.090;2023-04-29T00:03:54;13.00;99.60
19803;DHT22;66074;50.764;6.090;2023-04-29T00:06:20;12.90;99.10
19803;DHT22;66074;50.764;6.090;2023-04-29T00:08:46;12.90;99.20
19803;DHT22;66074;50.764;6.090;2023-04-29T00:11:15;12.90;99.10
19803;DHT22;66074;50.764;6.090;2023-04-29T00:13:40;12.90;99.00
19803;DHT22;66074;50.764;6.090;2023-04-29T00:16:06;12.80;98.90
19803;DHT22;66074;50.764;6.090;2023-04-29T00:18:33;12.80;98.90
19803;DHT22;66074;50.764;6.090;2023-04-29T00:20:58;12.80;99.20
19803;DHT22;66074;50.764;6.090;2023-04-29T00:23:24;12.80;98.80
19803;DHT22;66074;50.764;6.090;2023-04-29T00:25:50;12.90;98.90
19803;DHT22;66074;50.764;6.090;2023-04-29T00:28:18;12.80;98.90
19803;DHT22;66074;50.764;6.090;2023-04-29T00:30:43;12.90;98.90
19803;DHT22;66074;50.764;6.090;2023-04-29T00:33:09;12.80;98.90
19803;DHT22;66074;50.764;6.090;2023-04-29T00:35:35;12.90;99.10
19803;DHT22;66074;50.764;6.090;2023-04-29T00:38:00;12.90;99.10
19803;DHT22;66074;50.764;6.090;2023-04-29T00:40:27;13.00;99.30
19803;DHT22;66074;50.764;6.090;2023-04-29T00:42:52;13.00;99.30
19803;DHT22;66074;50.764;6.090;2023-04-29T00:45:18;13.00;99.30
19803;DHT22;66074;50.764;6.090;2023-04-29T00:47:44;13.00;99.30
19803;DHT22;66074;50.764;6.090;2023-04-29T00:50:10;13.00;99.40
19803;DHT22;66074;50.764;6.090;2023-04-29T00:52:37;12.90;99.40
19803;DHT22;66074;50.764;6.090;2023-04-29T00:55:05;12.90;99.50
19803;DHT22;66074;50.764;6.090;2023-04-29T00:57:32;12.90;99.50
19803;DHT22;66074;50.764;6.090;2023-04-29T00:59:59;12.90;99.50
19803;DHT22;66074;50.764;6.090;2023-04-29T01:02:25;12.90;99.60
19803;DHT22;66074;50.764;6.090;2023-04-29T01:04:51;12.80;99.50
19803;DHT22;66074;50.764;6.090;2023-04-29T01:07:24;12.90;99.60
19803;DHT22;66074;50.764;6.090;2023-04-29T01:10:02;12.90;99.70
19803;DHT22;66074;50.764;6.090;2023-04-29T01:12:52;12.70;99.90
19803;DHT22;66074;50.764;6.090;2023-04-29T01:18:09;12.70;99.70
19803;DHT22;66074;50.764;6.090;2023-04-29T01:20:37;12.70;99.80
19803;DHT22;66074;50.764;6.090;2023-04-29T01:23:03;12.70;99.50
19803;DHT22;66074;50.764;6.090;2023-04-29T01:25:28;12.60;99.50
19803;DHT22;66074;50.764;6.090;2023-04-29T01:36:15;12.60;99.90
19803;DHT22;66074;50.764;6.090;2023-04-29T01:42:33;12.60;99.90
19803;DHT22;66074;50.764;6.090;2023-04-29T01:45:04;12.60;99.90
19803;DHT22;66074;50.764;6.090;2023-04-29T01:47:31;12.60;99.90
19803;DHT22;66074;50.764;6.090;2023-04-29T01:49:57;12.60;99.90
19803;DHT22;66074;50.764;6.090;2023-04-29T01:52:22;12.70;99.90
19803;DHT22;66074;50.764;6.090;2023-04-29T01:54:48;12.70;99.90
19803;DHT22;66074;50.764;6.090;2023-04-29T01:57:14;12.80;99.90
19803;DHT22;66074;50.764;6.090;2023-04-29T01:59:39;12.70;99.90
19803;DHT22;66074;50.764;6.090;2023-04-29T02:02:06;12.70;99.90
19803;DHT22;66074;50.764;6.090;2023-04-29T02:04:32;12.80;99.90
19803;DHT22;66074;50.764;6.090;2023-04-29T02:06:58;12.80;99.90
19803;DHT22;66074;50.764;6.090;2023-04-29T02:09:24;12.70;99.90
19803;DHT22;66074;50.764;6.090;2023-04-29T02:11:50;12.80;99.90
19803;DHT22;66074;50.764;6.090;2023-04-29T02:14:15;12.80;99.90
19803;DHT22;66074;50.764;6.090;2023-04-29T02:16:43;12.80;99.80
19803;DHT22;66074;50.764;6.090;2023-04-29T02:19:10;12.70;99.80
19803;DHT22;66074;50.764;6.090;2023-04-29T02:21:35;12.70;99.70
19803;DHT22;66074;50.764;6.090;2023-04-29T02:24:01;12.60;99.90
19803;DHT22;66074;50.764;6.090;2023-04-29T02:26:27;12.60;99.60
19803;DHT22;66074;50.764;6.090;2023-04-29T02:28:52;12.50;99.60
19803;DHT22;66074;50.764;6.090;2023-04-29T02:31:18;12.50;99.70
19803;DHT22;66074;50.764;6.090;2023-04-29T02:33:50;12.50;99.70
19803;DHT22;66074;50.764;6.090;2023-04-29T02:36:15;12.50;99.90
19803;DHT22;66074;50.764;6.090;2023-04-29T02:38:42;12.50;99.80
19803;DHT22;66074;50.764;6.090;2023-04-29T02:41:08;12.50;99.90
19803;DHT22;66074;50.764;6.090;2023-04-29T02:43:34;12.50;99.90
19803;DHT22;66074;50.764;6.090;2023-04-29T02:45:59;12.50;99.90
19803;DHT22;66074;50.764;6.090;2023-04-29T02:48:25;12.40;99.90
19803;DHT22;66074;50.764;6.090;2023-04-29T02:50:51;12.40;99.90
19803;DHT22;66074;50.764;6.090;2023-04-29T02:53:17;12.40;99.90
19803;DHT22;66074;50.764;6.090;2023-04-29T02:55:43;12.30;99.90
19803;DHT22;66074;50.764;6.090;2023-04-29T02:58:08;12.20;99.90
19803;DHT22;66074;50.764;6.090;2023-04-29T03:00:34;12.10;99.90
19803;DHT22;66074;50.764;6.090;2023-04-29T03:03:00;12.10;99.90
19803;DHT22;66074;50.764;6.090;2023-04-29T03:05:26;12.10;99.90
19803;DHT22;66074;50.764;6.090;2023-04-29T03:07:51;12.10;99.90
19803;DHT22;66074;50.764;6.090;2023-04-29T03:10:17;12.10;99.90
19803;DHT22;66074;50.764;6.090;2023-04-29T03:12:43;12.20;99.90
19803;DHT22;66074;50.764;6.090;2023-04-29T03:15:09;12.10;99.90
19803;DHT22;66074;50.764;6.090;2023-04-29T03:17:35;12.00;99.90
19803;DHT22;66074;50.764;6.090;2023-04-29T03:20:01;12.00;99.90
19803;DHT22;66074;50.764;6.090;2023-04-29T03:22:26;12.00;99.90
19803;DHT22;66074;50.764;6.090;2023-04-29T03:24:52;11.90;99.90
19803;DHT22;66074;50.764;6.090;2023-04-29T03:27:18;11.90;99.90
19803;DHT22;66074;50.764;6.090;2023-04-29T03:29:44;11.90;99.90
19803;DHT22;66074;50.764;6.090;2023-04-29T03:32:09;11.90;99.90
19803;DHT22;66074;50.764;6.090;2023-04-29T03:34:35;11.90;99.90
19803;DHT22;66074;50.764;6.090;2023-04-29T03:37:01;11.90;99.90
19803;DHT22;66074;50.764;6.090;2023-04-29T03:39:27;11.90;99.90
19803;DHT22;66074;50.764;6.090;2023-04-29T03:41:57;11.80;99.90
19803;DHT22;66074;50.764;6.090;2023-04-29T03:44:22;11.80;99.90
19803;DHT22;66074;50.764;6.090;2023-04-29T03:46:48;11.80;99.90
19803;DHT22;66074;50.764;6.090;2023-04-29T03:49:14;11.80;99.90
19803;DHT22;66074;50.764;6.090;2023-04-29T03:51:40;11.70;99.90
19803;DHT22;66074;50.764;6.090;2023-04-29T03:54:06;11.50;99.90
19803;DHT22;66074;50.764;6.090;2023-04-29T03:56:32;11.40;99.90
19803;DHT22;66074;50.764;6.090;2023-04-29T03:58:58;11.40;99.90
19803;DHT22;66074;50.764;6.090;2023-04-29T04:01:24;11.40;99.90
19803;DHT22;66074;50.764;6.090;2023-04-29T04:03:50;11.20;99.90
19803;DHT22;66074;50.764;6.090;2023-04-29T04:06:16;11.30;99.90
19803;DHT22;66074;50.764;6.090;2023-04-29T04:08:42;11.20;99.90
19803;DHT22;66074;50.764;6.090;2023-04-29T04:11:07;11.10;99.90
19803;DHT22;66074;50.764;6.090;2023-04-29T04:13:34;11.10;99.90
19803;DHT22;66074;50.764;6.090;2023-04-29T04:16:00;10.90;99.90
19803;DHT22;66074;50.764;6.090;2023-04-29T04:18:25;10.90;99.90
19803;DHT22;66074;50.764;6.090;2023-04-29T04:20:51;10.80;99.90
19803;DHT22;66074;50.764;6.090;2023-04-29T04:23:16;10.70;99.90
19803;DHT22;66074;50.764;6.090;2023-04-29T04:25:46;10.70;99.90
19803;DHT22;66074;50.764;6.090;2023-04-29T04:28:12;10.70;99.90
19803;DHT22;66074;50.764;6.090;2023-04-29T04:30:38;10.70;99.90
19803;DHT22;66074;50.764;6.090;2023-04-29T04:33:03;10.70;99.90
19803;DHT22;66074;50.764;6.090;2023-04-29T04:35:29;10.80;99.90
19803;DHT22;66074;50.764;6.090;2023-04-29T04:37:54;10.70;99.90
19803;DHT22;66074;50.764;6.090;2023-04-29T04:40:20;10.70;99.90
19803;DHT22;66074;50.764;6.090;2023-04-29T04:42:46;10.60;99.90
19803;DHT22;66074;50.764;6.090;2023-04-29T04:45:11;10.60;99.90
19803;DHT22;66074;50.764;6.090;2023-04-29T04:47:39;10.70;99.90
19803;DHT22;66074;50.764;6.090;2023-04-29T04:50:06;10.70;99.90
19803;DHT22;66074;50.764;6.090;2023-04-29T04:52:32;10.80;99.90
19803;DHT22;66074;50.764;6.090;2023-04-29T04:54:57;10.70;99.90
19803;DHT22;66074;50.764;6.090;2023-04-29T04:57:23;10.80;99.90
19803;DHT22;66074;50.764;6.090;2023-04-29T04:59:48;10.70;99.90
19803;DHT22;66074;50.764;6.090;2023-04-29T05:02:14;10.60;99.90
19803;DHT22;66074;50.764;6.090;2023-04-29T05:04:40;10.60;99.90
19803;DHT22;66074;50.764;6.090;2023-04-29T05:07:05;10.60;99.90
19803;DHT22;66074;50.764;6.090;2023-04-29T05:09:31;10.60;99.90
19803;DHT22;66074;50.764;6.090;2023-04-29T05:11:57;10.60;99.90
19803;DHT22;66074;50.764;6.090;2023-04-29T05:14:24;10.60;99.90
19803;DHT22;66074;50.764;6.090;2023-04-29T05:16:50;10.50;99.90
19803;DHT22;66074;50.764;6.090;2023-04-29T05:19:17;10.40;99.90
19803;DHT22;66074;50.764;6.090;2023-04-29T05:21:43;10.40;99.90
19803;DHT22;66074;50.764;6.090;2023-04-29T05:24:08;10.50;99.90
19803;DHT22;66074;50.764;6.090;2023-04-29T05:26:34;10.50;99.90
19803;DHT22;66074;50.764;6.090;2023-04-29T05:29:00;10.40;99.90
19803;DHT22;66074;50.764;6.090;2023-04-29T05:31:26;10.50;99.90
19803;DHT22;66074;50.764;6.090;2023-04-29T05:33:52;10.40;99.90
19803;DHT22;66074;50.764;6.090;2023-04-29T05:36:18;10.40;99.90
19803;DHT22;66074;50.764;6.090;2023-04-29T05:38:43;10.40;99.90
19803;DHT22;66074;50.764;6.090;2023-04-29T05:41:09;10.30;99.90
19803;DHT22;66074;50.764;6.090;2023-04-29T05:43:35;10.30;99.90
19803;DHT22;66074;50.764;6.090;2023-04-29T05:46:01;10.40;99.90
19803;DHT22;66074;50.764;6.090;2023-04-29T05:48:26;10.40;99.90
19803;DHT22;66074;50.764;6.090;2023-04-29T05:50:54;10.50;99.90
19803;DHT22;66074;50.764;6.090;2023-04-29T05:53:20;10.50;99.90
19803;DHT22;66074;50.764;6.090;2023-04-29T05:55:45;10.50;99.90
19803;DHT22;66074;50.764;6.090;2023-04-29T05:58:11;10.40;99.90
19803;DHT22;66074;50.764;6.090;2023-04-29T06:00:37;10.40;99.90
19803;DHT22;66074;50.764;6.090;2023-04-29T06:03:03;10.40;99.90
19803;DHT22;66074;50.764;6.090;2023-04-29T06:05:29;10.50;99.90
19803;DHT22;66074;50.764;6.090;2023-04-29T06:07:55;10.40;99.90
19803;DHT22;66074;50.764;6.090;2023-04-29T06:10:20;10.40;99.90
19803;DHT22;66074;50.764;6.090;2023-04-29T06:12:46;10.50;99.90
19803;DHT22;66074;50.764;6.090;2023-04-29T06:15:13;10.50;99.90
19803;DHT22;66074;50.764;6.090;2023-04-29T06:17:39;10.60;99.90
19803;DHT22;66074;50.764;6.090;2023-04-29T06:20:05;10.60;99.90
19803;DHT22;66074;50.764;6.090;2023-04-29T06:22:30;10.70;99.90
19803;DHT22;66074;50.764;6.090;2023-04-29T06:24:56;10.70;99.90
19803;DHT22;66074;50.764;6.090;2023-04-29T06:27:22;10.80;99.90
19803;DHT22;66074;50.764;6.090;2023-04-29T06:29:48;10.80;99.90
19803;DHT22;66074;50.764;6.090;2023-04-29T06:32:13;10.80;99.90
19803;DHT22;66074;50.764;6.090;2023-04-29T06:34:40;10.90;99.90
19803;DHT22;66074;50.764;6.090;2023-04-29T06:37:05;11.00;99.90
19803;DHT22;66074;50.764;6.090;2023-04-29T06:39:31;10.90;99.90
19803;DHT22;66074;50.764;6.090;2023-04-29T06:41:57;10.90;99.90
19803;DHT22;66074;50.764;6.090;2023-04-29T06:44:23;10.90;99.90
19803;DHT22;66074;50.764;6.090;2023-04-29T06:46:49;10.70;99.90
19803;DHT22;66074;50.764;6.090;2023-04-29T06:49:14;10.70;99.90
19803;DHT22;66074;50.764;6.090;2023-04-29T06:51:46;10.70;99.90
19803;DHT22;66074;50.764;6.090;2023-04-29T06:54:12;10.80;99.90
19803;DHT22;66074;50.764;6.090;2023-04-29T06:56:37;10.80;99.90
19803;DHT22;66074;50.764;6.090;2023-04-29T06:59:03;10.80;99.90
19803;DHT22;66074;50.764;6.090;2023-04-29T07:01:29;10.90;99.90
19803;DHT22;66074;50.764;6.090;2023-04-29T07:03:55;10.90;99.90
19803;DHT22;66074;50.764;6.090;2023-04-29T07:06:21;10.90;99.90
19803;DHT22;66074;50.764;6.090;2023-04-29T07:08:46;11.00;99.90
19803;DHT22;66074;50.764;6.090;2023-04-29T07:11:12;11.00;99.90
19803;DHT22;66074;50.764;6.090;2023-04-29T07:13:38;11.10;99.90
19803;DHT22;66074;50.764;6.090;2023-04-29T07:16:04;11.20;99.90
19803;DHT22;66074;50.764;6.090;2023-04-29T07:18:30;11.20;99.90
19803;DHT22;66074;50.764;6.090;2023-04-29T07:21:00;11.20;99.90
19803;DHT22;66074;50.764;6.090;2023-04-29T07:23:26;11.10;99.90
19803;DHT22;66074;50.764;6.090;2023-04-29T07:25:52;11.00;99.90
19803;DHT22;66074;50.764;6.090;2023-04-29T07:28:17;11.00;99.90
19803;DHT22;66074;50.764;6.090;2023-04-29T07:30:43;11.10;99.90
19803;DHT22;66074;50.764;6.090;2023-04-29T07:33:08;11.10;99.90
19803;DHT22;66074;50.764;6.090;2023-04-29T07:35:34;11.00;99.90
19803;DHT22;66074;50.764;6.090;2023-04-29T07:38:00;11.10;99.90
19803;DHT22;66074;50.764;6.090;2023-04-29T07:40:26;11.10;99.90
19803;DHT22;66074;50.764;6.090;2023-04-29T07:42:51;11.10;99.90
19803;DHT22;66074;50.764;6.090;2023-04-29T07:45:17;11.20;99.90
19803;DHT22;66074;50.764;6.090;2023-04-29T07:47:42;11.20;99.90
19803;DHT22;66074;50.764;6.090;2023-04-29T07:50:09;11.20;99.90
19803;DHT22;66074;50.764;6.090;2023-04-29T07:52:35;11.10;99.90
19803;DHT22;66074;50.764;6.090;2023-04-29T07:55:01;11.00;99.90
19803;DHT22;66074;50.764;6.090;2023-04-29T07:57:27;11.00;99.90
19803;DHT22;66074;50.764;6.090;2023-04-29T07:59:53;11.00;99.90
19803;DHT22;66074;50.764;6.090;2023-04-29T08:02:19;11.10;99.90
19803;DHT22;66074;50.764;6.090;2023-04-29T08:04:45;11.10;99.90
19803;DHT22;66074;50.764;6.090;2023-04-29T08:07:11;11.00;99.90
19803;DHT22;66074;50.764;6.090;2023-04-29T08:09:37;11.10;99.90
19803;DHT22;66074;50.764;6.090;2023-04-29T08:12:03;11.00;99.90
19803;DHT22;66074;50.764;6.090;2023-04-29T08:14:28;11.10;99.90
19803;DHT22;66074;50.764;6.090;2023-04-29T08:16:54;11.20;99.90
19803;DHT22;66074;50.764;6.090;2023-04-29T08:19:20;11.30;99.90
19803;DHT22;66074;50.764;6.090;2023-04-29T08:21:46;11.30;99.90
19803;DHT22;66074;50.764;6.090;2023-04-29T08:24:12;11.30;99.90
19803;DHT22;66074;50.764;6.090;2023-04-29T08:26:41;11.40;99.90
19803;DHT22;66074;50.764;6.090;2023-04-29T08:29:07;11.50;99.90
19803;DHT22;66074;50.764;6.090;2023-04-29T08:31:32;11.40;99.90
19803;DHT22;66074;50.764;6.090;2023-04-29T08:33:59;11.50;99.90
19803;DHT22;66074;50.764;6.090;2023-04-29T08:36:25;11.50;99.90
19803;DHT22;66074;50.764;6.090;2023-04-29T08:38:53;11.60;99.90
19803;DHT22;66074;50.764;6.090;2023-04-29T08:41:19;11.60;99.90
19803;DHT22;66074;50.764;6.090;2023-04-29T08:43:44;11.70;99.90
19803;DHT22;66074;50.764;6.090;2023-04-29T08:46:10;11.60;99.90
19803;DHT22;66074;50.764;6.090;2023-04-29T08:48:37;11.50;99.90
19803;DHT22;66074;50.764;6.090;2023-04-29T08:51:05;11.30;99.90
19803;DHT22;66074;50.764;6.090;2023-04-29T08:53:31;11.10;99.90
19803;DHT22;66074;50.764;6.090;2023-04-29T08:55:59;11.00;99.90
19803;DHT22;66074;50.764;6.090;2023-04-29T08:58:30;11.00;99.90
19803;DHT22;66074;50.764;6.090;2023-04-29T09:00:58;11.10;99.90
19803;DHT22;66074;50.764;6.090;2023-04-29T09:06:20;11.20;99.90
19803;DHT22;66074;50.764;6.090;2023-04-29T09:08:46;11.20;99.90
19803;DHT22;66074;50.764;6.090;2023-04-29T09:11:11;11.30;99.90
19803;DHT22;66074;50.764;6.090;2023-04-29T09:13:38;11.30;99.90
19803;DHT22;66074;50.764;6.090;2023-04-29T09:16:04;11.40;99.90
19803;DHT22;66074;50.764;6.090;2023-04-29T09:21:17;11.50;99.90
19803;DHT22;66074;50.764;6.090;2023-04-29T09:23:44;11.70;99.90
19803;DHT22;66074;50.764;6.090;2023-04-29T09:26:10;11.80;99.90
19803;DHT22;66074;50.764;6.090;2023-04-29T09:28:36;11.90;99.90
19803;DHT22;66074;50.764;6.090;2023-04-29T09:31:02;12.00;99.90
19803;DHT22;66074;50.764;6.090;2023-04-29T09:33:54;11.80;99.90
19803;DHT22;66074;50.764;6.090;2023-04-29T09:36:40;11.60;99.90
19803;DHT22;66074;50.764;6.090;2023-04-29T09:39:10;11.60;99.90
19803;DHT22;66074;50.764;6.090;2023-04-29T09:41:56;11.60;99.90
19803;DHT22;66074;50.764;6.090;2023-04-29T09:44:28;11.70;99.90
19803;DHT22;66074;50.764;6.090;2023-04-29T09:47:02;11.70;99.90
19803;DHT22;66074;50.764;6.090;2023-04-29T09:49:29;11.70;99.90
19803;DHT22;66074;50.764;6.090;2023-04-29T09:51:56;11.60;99.90
19803;DHT22;66074;50.764;6.090;2023-04-29T09:54:23;11.60;99.90
19803;DHT22;66074;50.764;6.090;2023-04-29T09:56:51;11.60;99.90
19803;DHT22;66074;50.764;6.090;2023-04-29T09:59:18;11.60;99.90
19803;DHT22;66074;50.764;6.090;2023-04-29T10:01:49;11.60;99.90
19803;DHT22;66074;50.764;6.090;2023-04-29T10:04:16;11.50;99.90
19803;DHT22;66074;50.764;6.090;2023-04-29T10:06:44;11.60;99.90
19803;DHT22;66074;50.764;6.090;2023-04-29T10:09:13;11.70;99.90
19803;DHT22;66074;50.764;6.090;2023-04-29T10:11:41;11.70;99.90
19803;DHT22;66074;50.764;6.090;2023-04-29T10:14:11;11.90;99.90
19803;DHT22;66074;50.764;6.090;2023-04-29T10:16:44;12.20;99.90
19803;DHT22;66074;50.764;6.090;2023-04-29T10:19:14;12.30;99.90
19803;DHT22;66074;50.764;6.090;2023-04-29T10:21:41;12.50;99.90
19803;DHT22;66074;50.764;6.090;2023-04-29T10:24:08;12.60;99.90
19803;DHT22;66074;50.764;6.090;2023-04-29T10:26:37;12.60;99.90
19803;DHT22;66074;50.764;6.090;2023-04-29T10:29:04;12.70;99.90
19803;DHT22;66074;50.764;6.090;2023-04-29T10:31:33;12.70;99.90
19803;DHT22;66074;50.764;6.090;2023-04-29T10:33:59;12.60;99.90
19803;DHT22;66074;50.764;6.090;2023-04-29T10:36:27;12.40;99.90
19803;DHT22;66074;50.764;6.090;2023-04-29T10:38:57;12.30;99.90
19803;DHT22;66074;50.764;6.090;2023-04-29T10:41:30;12.60;99.90
19803;DHT22;66074;50.764;6.090;2023-04-29T10:43:58;12.80;99.90
19803;DHT22;66074;50.764;6.090;2023-04-29T10:46:25;13.00;99.90
19803;DHT22;66074;50.764;6.090;2023-04-29T10:48:56;13.40;99.90
19803;DHT22;66074;50.764;6.090;2023-04-29T10:51:29;13.70;99.90
19803;DHT22;66074;50.764;6.090;2023-04-29T10:54:02;14.10;99.50
19803;DHT22;66074;50.764;6.090;2023-04-29T10:56:54;14.30;99.50
19803;DHT22;66074;50.764;6.090;2023-04-29T11:02:09;14.40;98.90
19803;DHT22;66074;50.764;6.090;2023-04-29T11:05:07;14.40;98.80
19803;DHT22;66074;50.764;6.090;2023-04-29T11:07:33;14.30;97.20
19803;DHT22;66074;50.764;6.090;2023-04-29T11:10:01;14.30;98.40
19803;DHT22;66074;50.764;6.090;2023-04-29T11:12:27;14.20;98.00
19803;DHT22;66074;50.764;6.090;2023-04-29T11:14:53;14.10;97.70
19803;DHT22;66074;50.764;6.090;2023-04-29T11:17:26;13.90;97.70
19803;DHT22;66074;50.764;6.090;2023-04-29T11:19:59;13.70;97.90
19803;DHT22;66074;50.764;6.090;2023-04-29T11:22:26;13.70;98.20
19803;DHT22;66074;50.764;6.090;2023-04-29T11:25:06;13.80;98.30
19803;DHT22;66074;50.764;6.090;2023-04-29T11:27:35;13.70;97.90
19803;DHT22;66074;50.764;6.090;2023-04-29T11:30:03;13.70;97.90
19803;DHT22;66074;50.764;6.090;2023-04-29T11:32:38;13.70;97.90
19803;DHT22;66074;50.764;6.090;2023-04-29T11:35:09;13.50;97.80
19803;DHT22;66074;50.764;6.090;2023-04-29T11:37:36;13.50;97.90
19803;DHT22;66074;50.764;6.090;2023-04-29T11:40:01;13.50;98.00
19803;DHT22;66074;50.764;6.090;2023-04-29T11:42:27;13.40;98.00
19803;DHT22;66074;50.764;6.090;2023-04-29T11:44:54;13.40;97.90
19803;DHT22;66074;50.764;6.090;2023-04-29T11:47:26;13.40;98.00
19803;DHT22;66074;50.764;6.090;2023-04-29T11:49:52;13.40;97.90
19803;DHT22;66074;50.764;6.090;2023-04-29T11:52:19;13.50;97.90
19803;DHT22;66074;50.764;6.090;2023-04-29T11:54:46;13.50;97.90
19803;DHT22;66074;50.764;6.090;2023-04-29T11:57:12;13.50;97.90
19803;DHT22;66074;50.764;6.090;2023-04-29T11:59:37;13.50;97.80
19803;DHT22;66074;50.764;6.090;2023-04-29T12:02:03;13.60;97.90
19803;DHT22;66074;50.764;6.090;2023-04-29T12:04:29;13.60;97.90
19803;DHT22;66074;50.764;6.090;2023-04-29T12:06:56;13.60;98.00
19803;DHT22;66074;50.764;6.090;2023-04-29T12:09:22;13.60;98.10
19803;DHT22;66074;50.764;6.090;2023-04-29T12:11:48;13.60;98.10
19803;DHT22;66074;50.764;6.090;2023-04-29T12:14:17;13.70;98.10
19803;DHT22;66074;50.764;6.090;2023-04-29T12:16:43;13.70;98.10
19803;DHT22;66074;50.764;6.090;2023-04-29T12:19:10;13.70;98.10
19803;DHT22;66074;50.764;6.090;2023-04-29T12:21:36;13.90;98.00
19803;DHT22;66074;50.764;6.090;2023-04-29T12:24:12;14.00;97.70
19803;DHT22;66074;50.764;6.090;2023-04-29T12:26:39;14.20;97.80
19803;DHT22;66074;50.764;6.090;2023-04-29T12:29:04;14.40;97.40
19803;DHT22;66074;50.764;6.090;2023-04-29T12:31:33;14.40;97.40
19803;DHT22;66074;50.764;6.090;2023-04-29T12:33:59;14.50;97.20
19803;DHT22;66074;50.764;6.090;2023-04-29T12:36:24;14.60;97.20
19803;DHT22;66074;50.764;6.090;2023-04-29T12:38:51;14.40;96.70
19803;DHT22;66074;50.764;6.090;2023-04-29T12:41:18;14.30;96.70
19803;DHT22;66074;50.764;6.090;2023-04-29T12:43:45;14.40;96.80
19803;DHT22;66074;50.764;6.090;2023-04-29T12:46:14;14.50;96.80
19803;DHT22;66074;50.764;6.090;2023-04-29T12:48:40;14.60;96.70
19803;DHT22;66074;50.764;6.090;2023-04-29T12:51:09;14.70;96.70
19803;DHT22;66074;50.764;6.090;2023-04-29T12:53:35;14.80;96.70
19803;DHT22;66074;50.764;6.090;2023-04-29T12:56:01;14.80;96.80
19803;DHT22;66074;50.764;6.090;2023-04-29T12:58:30;15.00;96.90
19803;DHT22;66074;50.764;6.090;2023-04-29T13:00:57;15.10;96.20
19803;DHT22;66074;50.764;6.090;2023-04-29T13:03:23;15.20;96.50
19803;DHT22;66074;50.764;6.090;2023-04-29T13:05:49;15.20;96.40
19803;DHT22;66074;50.764;6.090;2023-04-29T13:08:18;15.20;96.40
19803;DHT22;66074;50.764;6.090;2023-04-29T13:10:43;15.10;96.20
19803;DHT22;66074;50.764;6.090;2023-04-29T13:13:09;14.90;96.10
19803;DHT22;66074;50.764;6.090;2023-04-29T13:15:35;14.70;95.80
19803;DHT22;66074;50.764;6.090;2023-04-29T13:18:03;14.60;95.90
19803;DHT22;66074;50.764;6.090;2023-04-29T13:20:29;14.70;96.10
19803;DHT22;66074;50.764;6.090;2023-04-29T13:22:55;14.80;96.30
19803;DHT22;66074;50.764;6.090;2023-04-29T13:25:20;15.00;96.30
19803;DHT22;66074;50.764;6.090;2023-04-29T13:27:46;14.90;95.90
19803;DHT22;66074;50.764;6.090;2023-04-29T13:30:12;15.00;96.00
19803;DHT22;66074;50.764;6.090;2023-04-29T13:32:38;14.90;95.70
19803;DHT22;66074;50.764;6.090;2023-04-29T13:35:05;15.00;95.80
19803;DHT22;66074;50.764;6.090;2023-04-29T13:37:31;15.10;95.90
19803;DHT22;66074;50.764;6.090;2023-04-29T13:39:57;15.00;95.80
19803;DHT22;66074;50.764;6.090;2023-04-29T13:42:22;15.00;95.80
19803;DHT22;66074;50.764;6.090;2023-04-29T13:44:48;15.10;95.90
19803;DHT22;66074;50.764;6.090;2023-04-29T13:47:15;15.10;95.90
19803;DHT22;66074;50.764;6.090;2023-04-29T13:49:42;15.30;95.90
19803;DHT22;66074;50.764;6.090;2023-04-29T13:52:11;15.50;95.70
19803;DHT22;66074;50.764;6.090;2023-04-29T13:54:38;15.60;95.80
19803;DHT22;66074;50.764;6.090;2023-04-29T13:57:05;15.80;95.80
19803;DHT22;66074;50.764;6.090;2023-04-29T13:59:31;15.80;95.40
19803;DHT22;66074;50.764;6.090;2023-04-29T14:01:58;15.90;95.40
19803;DHT22;66074;50.764;6.090;2023-04-29T14:04:25;16.10;95.10
19803;DHT22;66074;50.764;6.090;2023-04-29T14:06:52;16.10;94.60
19803;DHT22;66074;50.764;6.090;2023-04-29T14:09:17;16.00;94.30
19803;DHT22;66074;50.764;6.090;2023-04-29T14:11:47;15.80;94.30
19803;DHT22;66074;50.764;6.090;2023-04-29T14:14:13;15.60;94.40
19803;DHT22;66074;50.764;6.090;2023-04-29T14:16:39;15.70;94.60
19803;DHT22;66074;50.764;6.090;2023-04-29T14:19:05;15.80;94.60
19803;DHT22;66074;50.764;6.090;2023-04-29T14:21:32;15.80;94.60
19803;DHT22;66074;50.764;6.090;2023-04-29T14:23:58;15.70;94.40
19803;DHT22;66074;50.764;6.090;2023-04-29T14:26:25;15.80;94.40
19803;DHT22;66074;50.764;6.090;2023-04-29T14:28:51;15.70;94.20
19803;DHT22;66074;50.764;6.090;2023-04-29T14:31:30;15.70;94.40
19803;DHT22;66074;50.764;6.090;2023-04-29T14:33:58;15.70;94.40
19803;DHT22;66074;50.764;6.090;2023-04-29T14:36:24;15.80;94.40
19803;DHT22;66074;50.764;6.090;2023-04-29T14:38:53;15.80;94.40
19803;DHT22;66074;50.764;6.090;2023-04-29T14:41:19;15.90;94.50
19803;DHT22;66074;50.764;6.090;2023-04-29T14:43:46;15.90;94.40
19803;DHT22;66074;50.764;6.090;2023-04-29T14:46:12;15.90;94.10
19803;DHT22;66074;50.764;6.090;2023-04-29T14:48:37;15.80;94.10
19803;DHT22;66074;50.764;6.090;2023-04-29T14:51:03;15.80;94.00
19803;DHT22;66074;50.764;6.090;2023-04-29T14:53:30;15.90;94.10
19803;DHT22;66074;50.764;6.090;2023-04-29T14:55:56;15.90;94.00
19803;DHT22;66074;50.764;6.090;2023-04-29T14:58:21;15.80;93.80
19803;DHT22;66074;50.764;6.090;2023-04-29T15:00:47;15.80;93.80
19803;DHT22;66074;50.764;6.090;2023-04-29T15:03:13;15.70;93.70
19803;DHT22;66074;50.764;6.090;2023-04-29T15:05:39;15.80;93.90
19803;DHT22;66074;50.764;6.090;2023-04-29T15:08:05;16.20;94.00
19803;DHT22;66074;50.764;6.090;2023-04-29T15:10:32;16.40;93.70
19803;DHT22;66074;50.764;6.090;2023-04-29T15:12:58;16.50;93.70
19803;DHT22;66074;50.764;6.090;2023-04-29T15:15:24;16.50;93.60
19803;DHT22;66074;50.764;6.090;2023-04-29T15:17:49;16.40;93.40
19803;DHT22;66074;50.764;6.090;2023-04-29T15:20:15;16.20;93.10
19803;DHT22;66074;50.764;6.090;2023-04-29T15:22:41;15.90;93.30
19803;DHT22;66074;50.764;6.090;2023-04-29T15:25:07;15.80;92.90
19803;DHT22;66074;50.764;6.090;2023-04-29T15:27:34;15.70;93.10
19803;DHT22;66074;50.764;6.090;2023-04-29T15:30:00;15.70;93.20
19803;DHT22;66074;50.764;6.090;2023-04-29T15:32:26;15.50;93.00
19803;DHT22;66074;50.764;6.090;2023-04-29T15:35:05;15.50;93.10
19803;DHT22;66074;50.764;6.090;2023-04-29T15:37:34;15.30;92.80
19803;DHT22;66074;50.764;6.090;2023-04-29T15:40:00;15.20;92.90
19803;DHT22;66074;50.764;6.090;2023-04-29T15:42:26;15.00;92.90
19803;DHT22;66074;50.764;6.090;2023-04-29T15:44:51;14.90;92.90
19803;DHT22;66074;50.764;6.090;2023-04-29T15:47:17;14.80;92.90
19803;DHT22;66074;50.764;6.090;2023-04-29T15:49:43;14.70;93.00
19803;DHT22;66074;50.764;6.090;2023-04-29T15:52:09;14.70;93.10